Time;durP1;ratioP1;P1;durP2;ratioP2;P2;SDS_P1;SDS_P2;PMS_P1;PMS_P2;Temp;Humidity;BMP_temperature;BMP_pressure;BME280_temperature;BME280_humidity;BME280_pressure;Samples;Min_cycle;Max_cycle;Signal;HPM_P1;HPM_P2
2022/08/08 00:00:42;;;;;;;15.63;10.15;;;;;;;;;;4381089;32;20513;-69
2022/08/08 00:03:29;;;;;;;18.60;9.88;;;;;;;;;;4379578;32;20166;-68
2022/08/08 00:06:04;;;;;;;12.77;9.27;;;;;;;;;;4379598;32;20157;-68
2022/08/08 00:08:41;;;;;;;16.10;9.20;;;;;;;;;;4379400;32;20154;-69
2022/08/08 00:11:26;;;;;;;12.55;9.00;;;;;;;;;;4379133;32;20172;-68
2022/08/08 00:14:10;;;;;;;14.18;9.93;;;;;;;;;;4378551;32;20110;-68
2022/08/08 00:17:01;;;;;;;14.87;9.25;;;;;;;;;;4366619;32;20073;-68
2022/08/08 00:19:42;;;;;;;13.77;9.48;;;;;;;;;;4366681;32;20070;-68
2022/08/08 00:22:25;;;;;;;12.63;8.60;;;;;;;;;;4366159;32;20069;-68
2022/08/08 00:25:06;;;;;;;12.95;8.52;;;;;;;;;;4378160;32;20161;-68
2022/08/08 00:27:34;;;;;;;13.27;9.60;;;;;;;;;;4378936;32;20137;-68
2022/08/08 00:30:09;;;;;;;15.40;9.90;;;;;;;;;;4392460;32;20088;-69
2022/08/08 00:32:49;;;;;;;15.43;9.88;;;;;;;;;;4378580;32;20070;-68
2022/08/08 00:35:28;;;;;;;18.83;12.02;;;;;;;;;;4378345;32;20086;-69
2022/08/08 00:38:09;;;;;;;18.35;10.45;;;;;;;;;;4392505;32;20520;-68
2022/08/08 00:40:50;;;;;;;18.42;11.15;;;;;;;;;;4378404;32;20515;-69
2022/08/08 00:43:58;;;;;;;20.98;12.37;;;;;;;;;;4378629;32;20154;-68
2022/08/08 00:46:57;;;;;;;22.40;11.88;;;;;;;;;;4378556;32;20061;-67
2022/08/08 00:49:53;;;;;;;14.80;9.98;;;;;;;;;;4378650;32;20570;-67
2022/08/08 00:52:32;;;;;;;14.32;9.18;;;;;;;;;;4392489;32;20107;-68
2022/08/08 00:55:13;;;;;;;11.57;8.95;;;;;;;;;;4378492;32;20080;-70
2022/08/08 00:58:17;;;;;;;16.42;9.70;;;;;;;;;;4365664;32;20074;-69
2022/08/08 01:00:46;;;;;;;16.65;10.15;;;;;;;;;;4392055;32;20069;-69
2022/08/08 01:03:36;;;;;;;13.62;10.07;;;;;;;;;;4392411;32;20089;-68
2022/08/08 01:06:48;;;;;;;14.77;9.93;;;;;;;;;;4378708;32;20088;-69
2022/08/08 01:09:30;;;;;;;13.93;9.65;;;;;;;;;;3834095;37;20051;-67
2022/08/08 01:12:32;;;;;;;13.73;9.02;;;;;;;;;;4404620;32;20173;-68
2022/08/08 01:15:26;;;;;;;13.10;9.32;;;;;;;;;;4391280;32;20084;-68
2022/08/08 01:18:17;;;;;;;16.30;9.02;;;;;;;;;;4404539;32;20569;-69
2022/08/08 01:21:12;;;;;;;15.95;8.43;;;;;;;;;;4404254;32;20065;-68
2022/08/08 01:23:56;;;;;;;12.50;8.82;;;;;;;;;;4404555;32;20169;-68
2022/08/08 01:26:37;;;;;;;14.82;10.23;;;;;;;;;;4404676;32;20462;-69
2022/08/08 01:29:51;;;;;;;16.00;9.63;;;;;;;;;;4377883;32;20065;-68
2022/08/08 01:32:39;;;;;;;15.63;9.25;;;;;;;;;;4368887;32;20084;-66
2022/08/08 01:35:23;;;;;;;11.82;8.40;;;;;;;;;;4404759;32;20081;-68
2022/08/08 01:38:26;;;;;;;13.88;8.38;;;;;;;;;;4404790;32;20076;-68
2022/08/08 01:40:59;;;;;;;12.05;7.90;;;;;;;;;;4389958;32;20085;-69
2022/08/08 01:43:41;;;;;;;13.70;8.75;;;;;;;;;;4404741;32;20069;-68
2022/08/08 01:46:07;;;;;;;13.88;9.13;;;;;;;;;;4404233;32;20169;-68
2022/08/08 01:48:34;;;;;;;11.20;8.30;;;;;;;;;;4404206;32;20073;-69
2022/08/08 01:51:19;;;;;;;10.80;7.72;;;;;;;;;;4403834;32;20085;-69
2022/08/08 01:53:49;;;;;;;11.98;7.68;;;;;;;;;;4404225;32;20455;-68
2022/08/08 01:56:21;;;;;;;11.50;8.65;;;;;;;;;;4404600;32;20066;-69
2022/08/08 01:58:57;;;;;;;12.55;7.43;;;;;;;;;;4404266;32;20271;-68
2022/08/08 02:01:42;;;;;;;;;;;;;;;;;;4404377;32;20075;-68
2022/08/08 02:04:17;;;;;;;9.93;7.30;;;;;;;;;;4399475;32;20511;-68
2022/08/08 02:07:06;;;;;;;14.15;8.70;;;;;;;;;;4374874;32;20579;-68
2022/08/08 02:09:58;;;;;;;11.88;8.73;;;;;;;;;;4375163;32;20079;-68
2022/08/08 02:12:31;;;;;;;15.73;9.63;;;;;;;;;;4389071;32;20070;-67
2022/08/08 02:15:02;;;;;;;16.83;10.27;;;;;;;;;;4375069;32;20095;-69
2022/08/08 02:17:52;;;;;;;17.48;9.57;;;;;;;;;;4389076;32;20079;-68
2022/08/08 02:20:34;;;;;;;17.50;9.85;;;;;;;;;;4366684;32;20058;-68
2022/08/08 02:23:14;;;;;;;13.40;9.70;;;;;;;;;;4365060;32;20077;-69
2022/08/08 02:26:07;;;;;;;13.65;9.00;;;;;;;;;;4365636;32;20081;-69
2022/08/08 02:29:00;;;;;;;15.48;9.18;;;;;;;;;;4364212;32;20070;-68
2022/08/08 02:31:45;;;;;;;12.98;8.32;;;;;;;;;;4364987;32;20089;-69
2022/08/08 02:34:40;;;;;;;11.45;8.90;;;;;;;;;;4378425;32;20583;-68
2022/08/08 02:37:41;;;;;;;12.65;8.77;;;;;;;;;;4378295;32;20541;-68
2022/08/08 02:40:16;;;;;;;12.13;8.40;;;;;;;;;;4352478;32;20591;-69
2022/08/08 02:42:57;;;;;;;13.73;8.55;;;;;;;;;;4364548;32;20077;-69
2022/08/08 02:45:39;;;;;;;10.93;8.05;;;;;;;;;;4378035;32;20085;-67
2022/08/08 02:48:14;;;;;;;12.70;8.10;;;;;;;;;;4364744;32;20492;-68
2022/08/08 02:51:06;;;;;;;12.60;8.90;;;;;;;;;;4352166;32;20148;-69
2022/08/08 02:54:21;;;;;;;10.60;8.30;;;;;;;;;;4364070;32;20081;-67
2022/08/08 02:57:25;;;;;;;12.35;9.10;;;;;;;;;;4361298;32;20074;-68
2022/08/08 03:00:06;;;;;;;11.30;8.88;;;;;;;;;;4378022;32;20078;-68
2022/08/08 03:03:10;;;;;;;11.95;8.82;;;;;;;;;;4378615;32;20072;-68
2022/08/08 03:05:55;;;;;;;10.45;7.90;;;;;;;;;;4363675;32;20088;-68
2022/08/08 03:08:40;;;;;;;9.95;7.45;;;;;;;;;;4363681;32;20162;-68
2022/08/08 03:11:38;;;;;;;11.10;7.75;;;;;;;;;;4378246;32;20082;-68
2022/08/08 03:14:23;;;;;;;13.88;8.23;;;;;;;;;;4364146;32;20160;-67
2022/08/08 03:17:08;;;;;;;16.08;8.48;;;;;;;;;;4350959;32;20453;-67
2022/08/08 03:19:49;;;;;;;12.37;8.45;;;;;;;;;;4364442;32;20139;-68
2022/08/08 03:22:15;;;;;;;10.95;8.43;;;;;;;;;;4364168;32;20074;-68
2022/08/08 03:24:42;;;;;;;14.18;8.70;;;;;;;;;;4363539;32;20090;-69
2022/08/08 03:27:40;;;;;;;14.60;8.70;;;;;;;;;;4377094;32;20460;-68
2022/08/08 03:30:09;;;;;;;17.55;8.68;;;;;;;;;;4374428;32;20082;-68
2022/08/08 03:35:23;;;;;;;11.25;7.45;;;;;;;;;;4365805;32;20070;-69
2022/08/08 03:37:50;;;;;;;12.20;7.30;;;;;;;;;;4377381;32;20186;-68
2022/08/08 03:40:19;;;;;;;16.05;8.90;;;;;;;;;;4363539;32;20065;-68
2022/08/08 03:42:46;;;;;;;17.08;9.77;;;;;;;;;;4363278;32;20163;-68
2022/08/08 03:45:21;;;;;;;14.48;8.77;;;;;;;;;;4363194;32;20151;-68
2022/08/08 03:48:06;;;;;;;17.40;9.27;;;;;;;;;;4363259;32;20134;-68
2022/08/08 03:50:34;;;;;;;10.25;7.57;;;;;;;;;;4351829;32;20070;-69
2022/08/08 03:53:10;;;;;;;10.63;7.57;;;;;;;;;;4350908;32;20090;-68
2022/08/08 03:55:42;;;;;;;11.70;7.32;;;;;;;;;;4350796;32;20074;-67
2022/08/08 03:58:10;;;;;;;11.77;7.43;;;;;;;;;;4363875;32;20067;-68
2022/08/08 04:00:37;;;;;;;11.43;7.93;;;;;;;;;;4363281;32;20157;-68
2022/08/08 04:03:05;;;;;;;14.50;8.65;;;;;;;;;;4362963;32;20090;-68
2022/08/08 04:05:35;;;;;;;14.77;8.52;;;;;;;;;;4362579;32;20452;-69
2022/08/08 04:08:03;;;;;;;17.65;9.57;;;;;;;;;;4362692;32;20078;-67
2022/08/08 04:10:30;;;;;;;13.48;7.85;;;;;;;;;;4363412;32;20105;-67
2022/08/08 04:12:57;;;;;;;14.20;8.35;;;;;;;;;;4350958;32;20077;-67
2022/08/08 04:15:25;;;;;;;11.30;8.63;;;;;;;;;;4362696;32;20109;-66
2022/08/08 04:17:52;;;;;;;10.88;8.00;;;;;;;;;;4350706;32;20460;-68
2022/08/08 04:20:18;;;;;;;14.27;8.35;;;;;;;;;;4350287;32;20461;-68
2022/08/08 04:22:45;;;;;;;11.57;7.65;;;;;;;;;;4376834;32;20100;-67
2022/08/08 04:25:12;;;;;;;13.62;9.15;;;;;;;;;;4376670;32;20160;-68
2022/08/08 04:27:39;;;;;;;12.63;8.52;;;;;;;;;;4362283;32;20530;-68
2022/08/08 04:30:07;;;;;;;12.65;10.60;;;;;;;;;;4362992;32;20171;-68
2022/08/08 04:32:34;;;;;;;11.88;8.30;;;;;;;;;;4376639;32;20077;-69
2022/08/08 04:35:00;;;;;;;18.12;9.38;;;;;;;;;;4377305;32;20082;-68
2022/08/08 04:37:27;;;;;;;13.73;8.88;;;;;;;;;;4376637;32;20154;-68
2022/08/08 04:39:55;;;;;;;21.67;9.80;;;;;;;;;;4362660;32;20081;-68
2022/08/08 04:42:24;;;;;;;17.60;8.45;;;;;;;;;;4376519;32;20109;-68
2022/08/08 04:44:52;;;;;;;23.67;9.80;;;;;;;;;;4362825;32;20090;-68
2022/08/08 04:47:19;;;;;;;25.12;10.07;;;;;;;;;;4376390;32;20073;-68
2022/08/08 04:49:46;;;;;;;15.20;8.35;;;;;;;;;;4376388;32;20524;-68
2022/08/08 04:52:12;;;;;;;21.77;11.07;;;;;;;;;;4363155;32;20074;-68
2022/08/08 04:54:39;;;;;;;25.17;10.45;;;;;;;;;;4362218;32;20526;-68
2022/08/08 04:57:06;;;;;;;14.40;8.75;;;;;;;;;;4376539;32;20259;-69
2022/08/08 04:59:32;;;;;;;18.80;9.70;;;;;;;;;;4376626;32;20089;-67
2022/08/08 05:01:59;;;;;;;17.40;11.05;;;;;;;;;;4362304;32;20151;-68
2022/08/08 05:04:25;;;;;;;15.98;12.13;;;;;;;;;;4362853;32;20452;-68
2022/08/08 05:06:52;;;;;;;19.77;11.40;;;;;;;;;;4376164;32;20086;-67
2022/08/08 05:09:19;;;;;;;18.83;13.38;;;;;;;;;;4362132;32;20525;-69
2022/08/08 05:11:45;;;;;;;18.23;13.05;;;;;;;;;;4376897;32;20177;-68
2022/08/08 05:14:12;;;;;;;16.98;9.90;;;;;;;;;;4350295;32;20086;-68
2022/08/08 05:16:39;;;;;;;16.40;9.60;;;;;;;;;;4376776;32;20077;-69
2022/08/08 05:19:11;;;;;;;14.50;10.68;;;;;;;;;;4378836;32;20069;-69
2022/08/08 05:21:43;;;;;;;15.25;9.75;;;;;;;;;;4376861;32;20074;-69
2022/08/08 05:24:11;;;;;;;17.42;11.68;;;;;;;;;;4350209;32;20102;-68
2022/08/08 05:26:40;;;;;;;18.58;13.13;;;;;;;;;;4376329;32;20090;-69
2022/08/08 05:29:07;;;;;;;21.60;11.70;;;;;;;;;;4349689;32;20098;-70
2022/08/08 05:31:36;;;;;;;13.07;9.85;;;;;;;;;;4376049;32;20078;-67
2022/08/08 05:34:06;;;;;;;15.80;11.18;;;;;;;;;;4362254;32;20088;-66
2022/08/08 05:36:35;;;;;;;20.40;12.05;;;;;;;;;;4362204;32;20584;-65
2022/08/08 05:39:04;;;;;;;16.87;11.43;;;;;;;;;;4362364;32;20240;-66
2022/08/08 05:41:34;;;;;;;17.33;11.68;;;;;;;;;;4338189;32;20081;-64
2022/08/08 05:44:11;;;;;;;16.00;10.35;;;;;;;;;;4337655;32;20543;-66
2022/08/08 05:46:38;;;;;;;20.92;11.12;;;;;;;;;;4362297;32;20082;-67
2022/08/08 05:49:08;;;;;;;15.45;10.85;;;;;;;;;;4349947;32;20067;-65
2022/08/08 05:51:35;;;;;;;14.57;9.57;;;;;;;;;;4362570;32;20092;-65
2022/08/08 05:54:03;;;;;;;14.68;9.73;;;;;;;;;;4350375;32;20074;-65
2022/08/08 05:56:30;;;;;;;15.98;9.77;;;;;;;;;;4364805;32;20098;-65
2022/08/08 05:59:05;;;;;;;11.80;9.35;;;;;;;;;;4352731;32;20082;-65
2022/08/08 06:01:32;;;;;;;16.60;8.75;;;;;;;;;;4379154;32;20198;-65
2022/08/08 06:04:02;;;;;;;14.73;9.73;;;;;;;;;;4364767;32;20090;-67
2022/08/08 06:06:30;;;;;;;13.27;8.73;;;;;;;;;;4352592;32;20074;-67
2022/08/08 06:09:01;;;;;;;14.82;9.10;;;;;;;;;;4378391;32;20105;-68
2022/08/08 06:11:31;;;;;;;11.12;8.50;;;;;;;;;;4352502;32;20085;-67
2022/08/08 06:13:58;;;;;;;9.98;7.57;;;;;;;;;;4364990;32;20101;-68
2022/08/08 06:16:26;;;;;;;13.10;8.25;;;;;;;;;;4365149;32;20108;-66
2022/08/08 06:18:54;;;;;;;13.25;9.25;;;;;;;;;;4352703;32;20224;-67
2022/08/08 06:21:21;;;;;;;15.32;9.93;;;;;;;;;;4364691;32;20152;-66
2022/08/08 06:23:48;;;;;;;12.57;9.45;;;;;;;;;;4364586;32;20146;-66
2022/08/08 06:26:14;;;;;;;15.63;9.23;;;;;;;;;;4352101;32;20098;-66
2022/08/08 06:28:52;;;;;;;17.73;10.30;;;;;;;;;;4364618;32;20497;-66
2022/08/08 06:31:23;;;;;;;14.40;10.48;;;;;;;;;;4364810;32;20081;-67
2022/08/08 06:34:04;;;;;;;15.45;9.85;;;;;;;;;;4353423;32;20078;-66
2022/08/08 06:36:38;;;;;;;12.07;8.77;;;;;;;;;;4368273;32;20072;-66
2022/08/08 06:39:08;;;;;;;12.10;8.68;;;;;;;;;;4354481;32;20078;-65
2022/08/08 06:41:41;;;;;;;11.85;8.65;;;;;;;;;;4381757;32;20150;-65
2022/08/08 06:44:10;;;;;;;13.50;9.52;;;;;;;;;;4368632;32;20088;-65
2022/08/08 06:46:38;;;;;;;15.02;8.93;;;;;;;;;;4368019;32;20162;-67
2022/08/08 06:49:05;;;;;;;12.90;9.00;;;;;;;;;;4354304;32;20143;-68
2022/08/08 06:51:32;;;;;;;13.10;9.65;;;;;;;;;;4380591;32;20491;-68
2022/08/08 06:54:01;;;;;;;9.60;8.10;;;;;;;;;;4364848;32;20089;-68
2022/08/08 06:56:30;;;;;;;12.85;7.93;;;;;;;;;;4351495;32;20464;-67
2022/08/08 06:58:57;;;;;;;13.15;8.50;;;;;;;;;;4364330;32;20141;-65
2022/08/08 07:01:24;;;;;;;10.23;8.20;;;;;;;;;;4364102;32;20161;-67
2022/08/08 07:04:17;;;;;;;10.45;7.10;;;;;;;;;;4363560;32;20070;-67
2022/08/08 07:06:54;;;;;;;10.20;7.68;;;;;;;;;;4367577;32;20183;-66
2022/08/08 07:09:25;;;;;;;10.30;7.12;;;;;;;;;;4363374;32;20090;-67
2022/08/08 07:11:52;;;;;;;9.63;7.40;;;;;;;;;;4377758;32;20070;-67
2022/08/08 07:14:42;;;;;;;9.05;7.47;;;;;;;;;;4363486;32;20066;-67
2022/08/08 07:17:16;;;;;;;9.50;8.07;;;;;;;;;;4364000;32;20059;-66
2022/08/08 07:19:47;;;;;;;9.32;7.80;;;;;;;;;;4364602;32;20100;-66
2022/08/08 07:22:21;;;;;;;8.63;6.60;;;;;;;;;;4363733;32;20165;-66
2022/08/08 07:24:51;;;;;;;11.35;6.57;;;;;;;;;;4363688;32;20098;-65
2022/08/08 07:27:22;;;;;;;9.38;7.03;;;;;;;;;;4363934;32;20082;-66
2022/08/08 07:29:49;;;;;;;8.02;6.75;;;;;;;;;;4363894;32;20070;-66
2022/08/08 07:32:16;;;;;;;9.40;7.20;;;;;;;;;;4350867;32;20452;-67
2022/08/08 07:34:44;;;;;;;8.60;6.87;;;;;;;;;;4351159;32;20097;-67
2022/08/08 07:37:13;;;;;;;9.73;6.53;;;;;;;;;;4350803;32;20468;-67
2022/08/08 07:39:43;;;;;;;9.35;7.20;;;;;;;;;;4351353;32;20082;-67
2022/08/08 07:42:14;;;;;;;9.25;6.35;;;;;;;;;;4363180;32;20511;-67
2022/08/08 07:44:45;;;;;;;9.20;7.07;;;;;;;;;;4351246;32;20074;-67
2022/08/08 07:47:12;;;;;;;10.20;7.32;;;;;;;;;;4350800;32;20551;-66
2022/08/08 07:49:39;;;;;;;8.10;6.00;;;;;;;;;;4363029;32;20151;-67
2022/08/08 07:52:08;;;;;;;9.15;7.00;;;;;;;;;;4351017;32;20115;-67
2022/08/08 07:54:41;;;;;;;7.62;6.15;;;;;;;;;;4350589;32;20147;-67
2022/08/08 07:57:36;;;;;;;7.85;6.50;;;;;;;;;;4363218;32;20077;-65
2022/08/08 08:00:08;;;;;;;9.32;7.82;;;;;;;;;;4362949;32;20088;-67
2022/08/08 08:03:02;;;;;;;7.50;6.30;;;;;;;;;;4363947;32;20154;-67
2022/08/08 08:05:30;;;;;;;10.00;6.43;;;;;;;;;;4352329;32;20159;-67
2022/08/08 08:08:16;;;;;;;10.75;7.32;;;;;;;;;;4345605;32;20169;-66
2022/08/08 08:10:45;;;;;;;9.73;6.57;;;;;;;;;;4358108;32;20091;-67
2022/08/08 08:13:24;;;;;;;9.73;7.43;;;;;;;;;;4345630;33;20168;-67
2022/08/08 08:16:00;;;;;;;9.65;6.28;;;;;;;;;;4358384;32;20079;-67
2022/08/08 08:18:51;;;;;;;10.10;7.03;;;;;;;;;;4344486;32;20090;-65
2022/08/08 08:21:19;;;;;;;8.00;6.60;;;;;;;;;;4357328;32;20449;-66
2022/08/08 08:23:46;;;;;;;8.20;7.35;;;;;;;;;;4346578;33;20083;-67
2022/08/08 08:26:13;;;;;;;7.95;6.25;;;;;;;;;;4345599;33;20159;-67
2022/08/08 08:28:40;;;;;;;8.65;6.40;;;;;;;;;;4357556;32;20184;-66
2022/08/08 08:31:07;;;;;;;8.88;6.10;;;;;;;;;;4357782;32;20513;-66
2022/08/08 08:33:34;;;;;;;6.95;5.95;;;;;;;;;;4357372;32;20075;-66
2022/08/08 08:36:04;;;;;;;7.03;5.93;;;;;;;;;;4358289;32;20154;-67
2022/08/08 08:38:31;;;;;;;7.03;5.85;;;;;;;;;;4344875;33;20086;-66
2022/08/08 08:40:58;;;;;;;6.50;5.55;;;;;;;;;;4344887;33;20171;-66
2022/08/08 08:43:25;;;;;;;6.32;5.55;;;;;;;;;;4344885;33;20082;-67
2022/08/08 08:45:56;;;;;;;7.80;5.70;;;;;;;;;;4344807;33;20086;-67
2022/08/08 08:48:23;;;;;;;6.62;5.93;;;;;;;;;;4357688;32;20257;-67
2022/08/08 08:50:52;;;;;;;8.00;6.18;;;;;;;;;;4345093;33;20100;-67
2022/08/08 08:53:19;;;;;;;8.82;7.07;;;;;;;;;;4357538;32;20106;-67
2022/08/08 08:55:47;;;;;;;7.95;5.65;;;;;;;;;;4344652;32;20086;-65
2022/08/08 08:58:35;;;;;;;7.82;6.50;;;;;;;;;;4344802;33;20079;-67
2022/08/08 09:01:04;;;;;;;8.38;7.03;;;;;;;;;;4320486;33;20086;-67
2022/08/08 09:03:31;;;;;;;11.35;7.43;;;;;;;;;;4357904;32;20067;-66
2022/08/08 09:05:59;;;;;;;7.95;6.68;;;;;;;;;;4357222;32;20631;-66
2022/08/08 09:08:27;;;;;;;10.35;6.62;;;;;;;;;;4357559;32;20067;-66
2022/08/08 09:10:54;;;;;;;7.45;6.65;;;;;;;;;;4344678;33;20083;-66
2022/08/08 09:13:21;;;;;;;8.85;7.00;;;;;;;;;;4344828;33;20117;-67
2022/08/08 09:15:48;;;;;;;10.27;6.93;;;;;;;;;;4344787;32;20156;-67
2022/08/08 09:18:18;;;;;;;12.35;7.57;;;;;;;;;;4358537;32;20079;-68
2022/08/08 09:20:45;;;;;;;8.80;6.68;;;;;;;;;;4357980;32;20078;-66
2022/08/08 09:23:15;;;;;;;9.55;7.10;;;;;;;;;;4358250;32;20164;-66
2022/08/08 09:26:05;;;;;;;10.20;6.78;;;;;;;;;;4344919;33;20185;-68
2022/08/08 09:28:36;;;;;;;11.30;7.25;;;;;;;;;;4340587;32;20075;-67
2022/08/08 09:31:13;;;;;;;9.35;6.90;;;;;;;;;;4360201;32;20149;-67
2022/08/08 09:33:44;;;;;;;9.35;6.75;;;;;;;;;;4347749;33;20130;-66
2022/08/08 09:36:21;;;;;;;9.27;7.32;;;;;;;;;;4360168;32;20090;-67
2022/08/08 09:38:58;;;;;;;7.82;6.93;;;;;;;;;;4335444;33;20075;-67
2022/08/08 09:41:27;;;;;;;8.50;7.55;;;;;;;;;;4360168;32;20074;-66
2022/08/08 09:44:01;;;;;;;9.40;6.55;;;;;;;;;;4347184;33;20083;-66
2022/08/08 09:46:29;;;;;;;9.05;6.85;;;;;;;;;;4347878;32;20093;-67
2022/08/08 09:48:58;;;;;;;12.63;7.90;;;;;;;;;;4347381;33;20461;-67
2022/08/08 09:51:29;;;;;;;10.13;6.95;;;;;;;;;;4347574;33;20086;-67
2022/08/08 09:54:01;;;;;;;12.88;8.95;;;;;;;;;;4359794;32;20150;-66
2022/08/08 09:56:33;;;;;;;13.07;8.57;;;;;;;;;;4347418;33;20078;-67
2022/08/08 09:59:06;;;;;;;12.25;9.63;;;;;;;;;;4347013;32;20154;-67
2022/08/08 10:01:36;;;;;;;14.38;10.55;;;;;;;;;;4347179;33;20077;-67
2022/08/08 10:04:07;;;;;;;12.20;8.98;;;;;;;;;;4335206;33;20253;-67
2022/08/08 10:06:42;;;;;;;12.40;9.07;;;;;;;;;;4359372;32;20562;-67
2022/08/08 10:09:09;;;;;;;12.10;9.32;;;;;;;;;;4347060;33;20098;-67
2022/08/08 10:11:37;;;;;;;18.55;10.43;;;;;;;;;;4359403;32;20087;-67
2022/08/08 10:14:06;;;;;;;18.58;10.85;;;;;;;;;;4347402;32;20075;-66
2022/08/08 10:16:41;;;;;;;14.50;9.60;;;;;;;;;;4335410;33;20161;-65
2022/08/08 10:19:12;;;;;;;16.95;10.85;;;;;;;;;;4348492;32;20071;-66
2022/08/08 10:21:39;;;;;;;13.62;10.57;;;;;;;;;;4334922;33;20074;-68
2022/08/08 10:24:08;;;;;;;14.57;10.95;;;;;;;;;;4359688;32;20063;-66
2022/08/08 10:26:52;;;;;;;12.02;9.45;;;;;;;;;;4347178;33;20082;-67
2022/08/08 10:29:39;;;;;;;14.50;10.05;;;;;;;;;;4334779;33;20164;-67
2022/08/08 10:35:05;;;;;;;12.45;9.18;;;;;;;;;;4358150;32;20493;-66
2022/08/08 10:37:33;;;;;;;11.73;8.98;;;;;;;;;;4359860;32;20108;-67
2022/08/08 10:40:12;;;;;;;11.40;8.80;;;;;;;;;;4358876;32;20082;-67
2022/08/08 10:42:40;;;;;;;12.63;9.93;;;;;;;;;;4346853;32;20098;-67
2022/08/08 10:45:08;;;;;;;11.45;9.20;;;;;;;;;;4346936;32;20155;-67
2022/08/08 10:47:35;;;;;;;12.23;9.77;;;;;;;;;;4359433;32;20171;-66
2022/08/08 10:50:04;;;;;;;11.00;8.98;;;;;;;;;;4362688;32;20105;-68
2022/08/08 10:52:31;;;;;;;10.60;8.95;;;;;;;;;;4360221;32;20538;-67
2022/08/08 10:54:59;;;;;;;19.67;9.88;;;;;;;;;;4334392;33;20075;-66
2022/08/08 10:57:26;;;;;;;12.75;9.35;;;;;;;;;;4347017;32;20110;-66
2022/08/08 10:59:57;;;;;;;12.10;7.95;;;;;;;;;;4359035;32;20152;-65
2022/08/08 11:02:26;;;;;;;11.07;7.45;;;;;;;;;;4358950;32;20074;-67
2022/08/08 11:04:55;;;;;;;11.40;7.72;;;;;;;;;;4359286;32;20501;-66
2022/08/08 11:07:26;;;;;;;15.77;7.35;;;;;;;;;;4363983;32;20157;-66
2022/08/08 11:09:53;;;;;;;9.30;7.05;;;;;;;;;;4352022;32;20089;-67
2022/08/08 11:12:19;;;;;;;7.93;6.07;;;;;;;;;;4364113;32;20158;-67
2022/08/08 11:14:55;;;;;;;8.32;6.53;;;;;;;;;;4351497;32;20085;-67
2022/08/08 11:17:25;;;;;;;7.80;5.70;;;;;;;;;;4364204;32;20097;-66
2022/08/08 11:19:52;;;;;;;8.70;6.78;;;;;;;;;;4351502;32;20180;-66
2022/08/08 11:22:25;;;;;;;10.40;7.03;;;;;;;;;;4363754;32;20088;-66
2022/08/08 11:24:55;;;;;;;9.35;6.93;;;;;;;;;;4351466;32;20177;-66
2022/08/08 11:27:24;;;;;;;9.43;6.97;;;;;;;;;;4351200;32;20497;-65
2022/08/08 11:29:55;;;;;;;9.98;6.72;;;;;;;;;;4363628;32;20539;-65
2022/08/08 11:32:25;;;;;;;12.27;7.82;;;;;;;;;;4363362;32;20091;-66
2022/08/08 11:35:09;;;;;;;11.35;6.90;;;;;;;;;;4363583;32;20508;-66
2022/08/08 11:37:37;;;;;;;10.52;8.15;;;;;;;;;;4363539;32;20066;-67
2022/08/08 11:40:06;;;;;;;15.00;8.10;;;;;;;;;;4363578;32;20162;-66
2022/08/08 11:42:33;;;;;;;11.12;7.93;;;;;;;;;;4363349;32;20073;-67
2022/08/08 11:45:00;;;;;;;13.85;8.77;;;;;;;;;;4363285;32;20089;-67
2022/08/08 11:47:27;;;;;;;11.57;9.13;;;;;;;;;;4350906;32;20097;-66
2022/08/08 11:49:59;;;;;;;11.45;9.35;;;;;;;;;;4351096;32;20086;-66
2022/08/08 11:52:27;;;;;;;12.27;8.80;;;;;;;;;;4362872;32;20098;-66
2022/08/08 11:54:54;;;;;;;11.75;7.55;;;;;;;;;;4363160;32;20078;-67
2022/08/08 11:57:24;;;;;;;10.40;8.25;;;;;;;;;;4363445;32;20535;-65
2022/08/08 11:59:58;;;;;;;9.23;7.72;;;;;;;;;;4350687;32;20531;-65
2022/08/08 12:02:27;;;;;;;8.48;7.37;;;;;;;;;;4363153;32;20159;-65
2022/08/08 12:05:00;;;;;;;10.68;7.18;;;;;;;;;;4363069;32;20162;-66
2022/08/08 12:07:28;;;;;;;9.45;7.43;;;;;;;;;;4350398;32;20460;-67
2022/08/08 12:09:55;;;;;;;8.70;7.10;;;;;;;;;;4362894;32;20529;-67
2022/08/08 12:12:24;;;;;;;8.95;6.95;;;;;;;;;;4362942;32;20096;-66
2022/08/08 12:15:01;;;;;;;9.13;7.93;;;;;;;;;;4363523;32;20133;-66
2022/08/08 12:17:36;;;;;;;9.90;7.07;;;;;;;;;;4350863;32;20112;-66
2022/08/08 12:20:05;;;;;;;8.48;7.25;;;;;;;;;;4363741;32;20179;-66
2022/08/08 12:22:32;;;;;;;9.70;6.82;;;;;;;;;;4362963;32;20231;-67
2022/08/08 12:25:00;;;;;;;8.13;6.75;;;;;;;;;;4350217;32;20086;-66
2022/08/08 12:27:41;;;;;;;9.82;7.47;;;;;;;;;;4350354;32;20085;-66
2022/08/08 12:30:08;;;;;;;12.73;7.75;;;;;;;;;;4364022;32;20088;-66
2022/08/08 12:32:48;;;;;;;11.95;7.72;;;;;;;;;;4362670;32;20094;-67
2022/08/08 12:35:22;;;;;;;9.93;7.82;;;;;;;;;;4363447;32;20085;-66
2022/08/08 12:38:11;;;;;;;11.68;7.75;;;;;;;;;;4350369;32;20112;-67
2022/08/08 12:40:37;;;;;;;10.60;8.45;;;;;;;;;;4362933;32;20191;-67
2022/08/08 12:43:04;;;;;;;12.35;9.18;;;;;;;;;;4362718;32;20500;-66
2022/08/08 12:45:39;;;;;;;12.55;9.30;;;;;;;;;;4362529;32;20172;-66
2022/08/08 12:48:16;;;;;;;12.02;9.48;;;;;;;;;;4362517;32;20143;-67
2022/08/08 12:50:46;;;;;;;11.48;8.02;;;;;;;;;;4362703;32;20153;-67
2022/08/08 12:53:30;;;;;;;11.15;8.95;;;;;;;;;;4363454;32;20507;-66
2022/08/08 12:56:06;;;;;;;9.65;8.30;;;;;;;;;;4350121;32;20149;-67
2022/08/08 12:58:50;;;;;;;11.43;8.30;;;;;;;;;;4362539;32;20071;-67
2022/08/08 13:01:17;;;;;;;10.82;8.32;;;;;;;;;;4362422;32;20089;-66
2022/08/08 13:03:48;;;;;;;14.15;9.75;;;;;;;;;;4349552;32;20063;-68
2022/08/08 13:06:19;;;;;;;14.80;9.15;;;;;;;;;;4350051;32;20085;-67
2022/08/08 13:08:51;;;;;;;11.80;8.15;;;;;;;;;;4357058;32;20086;-67
2022/08/08 13:11:37;;;;;;;12.65;8.13;;;;;;;;;;4358202;32;20093;-66
2022/08/08 13:14:06;;;;;;;;;;;;;;;;;;4358022;32;20521;-67
2022/08/08 13:16:33;;;;;;;9.98;7.43;;;;;;;;;;4332965;33;19993;-67
2022/08/08 13:19:02;;;;;;;13.95;8.25;;;;;;;;;;4332089;33;20110;-67
2022/08/08 13:21:30;;;;;;;13.85;7.87;;;;;;;;;;4357025;32;20090;-66
2022/08/08 13:23:58;;;;;;;14.52;8.48;;;;;;;;;;4357131;32;20506;-66
2022/08/08 13:26:30;;;;;;;14.35;8.98;;;;;;;;;;4358925;32;20071;-67
2022/08/08 13:28:58;;;;;;;14.18;9.15;;;;;;;;;;4345841;32;20090;-67
2022/08/08 13:31:25;;;;;;;19.17;9.88;;;;;;;;;;4357610;32;20097;-67
2022/08/08 13:33:52;;;;;;;16.62;9.88;;;;;;;;;;4345255;33;20090;-67
2022/08/08 13:36:20;;;;;;;17.83;10.35;;;;;;;;;;4357383;32;20066;-67
2022/08/08 13:38:47;;;;;;;16.75;10.55;;;;;;;;;;4332704;33;20074;-67
2022/08/08 13:41:15;;;;;;;16.08;10.45;;;;;;;;;;4346263;32;20067;-67
2022/08/08 13:43:42;;;;;;;16.50;9.73;;;;;;;;;;4344959;33;20071;-67
2022/08/08 13:46:10;;;;;;;18.73;9.93;;;;;;;;;;4344705;33;20102;-65
2022/08/08 13:48:48;;;;;;;18.92;9.70;;;;;;;;;;4356939;32;20519;-67
2022/08/08 13:51:16;;;;;;;15.68;8.82;;;;;;;;;;4357148;32;20106;-67
2022/08/08 13:53:54;;;;;;;19.12;8.70;;;;;;;;;;4356789;32;20543;-66
2022/08/08 13:56:37;;;;;;;16.08;9.23;;;;;;;;;;4344613;33;20083;-67
2022/08/08 13:59:05;;;;;;;13.82;9.50;;;;;;;;;;4344611;33;20520;-67
2022/08/08 14:01:33;;;;;;;15.88;9.45;;;;;;;;;;4356878;32;20135;-67
2022/08/08 14:04:00;;;;;;;20.10;10.05;;;;;;;;;;4356695;32;20102;-66
2022/08/08 14:06:29;;;;;;;19.70;10.20;;;;;;;;;;4344482;33;20074;-67
2022/08/08 14:08:56;;;;;;;33.08;11.00;;;;;;;;;;4356346;32;20078;-67
2022/08/08 14:11:25;;;;;;;16.83;11.15;;;;;;;;;;4344655;33;20091;-66
2022/08/08 14:13:52;;;;;;;20.90;11.93;;;;;;;;;;4344863;33;20070;-66
2022/08/08 14:16:20;;;;;;;17.27;11.02;;;;;;;;;;4333887;33;20086;-66
2022/08/08 14:18:55;;;;;;;17.00;11.18;;;;;;;;;;4348613;32;20156;-67
2022/08/08 14:21:41;;;;;;;17.10;9.63;;;;;;;;;;4347381;33;20163;-67
2022/08/08 14:24:07;;;;;;;15.52;10.52;;;;;;;;;;4348214;33;20087;-67
2022/08/08 14:26:44;;;;;;;15.05;10.20;;;;;;;;;;4335093;33;20154;-66
2022/08/08 14:29:25;;;;;;;17.05;9.68;;;;;;;;;;4346714;33;20450;-67
2022/08/08 14:31:52;;;;;;;17.48;9.85;;;;;;;;;;4359006;32;20525;-65
2022/08/08 14:34:19;;;;;;;14.05;10.07;;;;;;;;;;4347496;33;20063;-66
2022/08/08 14:36:49;;;;;;;18.12;9.77;;;;;;;;;;4347116;33;20098;-65
2022/08/08 14:39:19;;;;;;;16.23;9.40;;;;;;;;;;4359498;32;20083;-65
2022/08/08 14:41:46;;;;;;;13.85;9.77;;;;;;;;;;4359788;32;20079;-65
2022/08/08 14:44:13;;;;;;;12.37;9.48;;;;;;;;;;4334191;33;20505;-68
2022/08/08 14:46:40;;;;;;;12.77;8.77;;;;;;;;;;4359879;32;20179;-67
2022/08/08 14:49:11;;;;;;;12.32;8.73;;;;;;;;;;4346575;33;20094;-66
2022/08/08 14:51:40;;;;;;;12.63;8.77;;;;;;;;;;4359248;32;20060;-67
2022/08/08 14:54:07;;;;;;;13.18;8.90;;;;;;;;;;4359099;32;20082;-66
2022/08/08 14:56:40;;;;;;;12.88;8.70;;;;;;;;;;4346678;33;20576;-66
2022/08/08 14:59:16;;;;;;;13.77;8.95;;;;;;;;;;4346745;33;20126;-66
2022/08/08 15:01:46;;;;;;;15.40;9.77;;;;;;;;;;4358636;32;20549;-67
2022/08/08 15:04:13;;;;;;;15.88;10.20;;;;;;;;;;4359616;32;20090;-65
2022/08/08 15:06:40;;;;;;;12.68;9.32;;;;;;;;;;4359793;32;20142;-67
2022/08/08 15:09:07;;;;;;;15.73;9.75;;;;;;;;;;4346811;32;20083;-68
2022/08/08 15:11:34;;;;;;;14.35;9.35;;;;;;;;;;4346393;33;20505;-67
2022/08/08 15:14:01;;;;;;;17.42;10.13;;;;;;;;;;4358987;32;20126;-65